McAfee, NJ (07428)

10:36 PM EDT on July 30, 2016 (GMT -0400)
Drew Mt | | Change Station

Elev 948 ft 41.22 °N, 74.53 °W | Updated 11 minutes ago

Light Rain
Light Rain
67.1 °F
Feels Like 67.1 °F
N
0.0
Wind Variable Wind from East

Today
High -- | Low -- °F
--% Chance of Precip.
Yesterday
High -- | Low -- °F
Precip. -- in
Pressure 30.05 in
Visibility 10.0 miles
Clouds Scattered Clouds 1900 ft
Mostly Cloudy 2700 ft
Overcast 6500 ft
Dew Point 65 °F
Humidity 94%
Rainfall 0.91 in
Snow Depth Not available.
5:52 AM 8:16 PM
Waning Crescent, 9% visible
SPECI KFWN 310227Z AUTO 00000KT 10SM -RA SCT019 BKN027 OVC065 21/21 A3005 RMK AO2 P0001 T02110206
Pressure 30.05 in
Visibility 10.0 miles
Clouds Scattered Clouds 1900 ft
Mostly Cloudy 2700 ft
Overcast 6500 ft
Dew Point 65 °F
Humidity 94%
Rainfall 0.91 in
Snow Depth Not available.
5:52 AM 8:16 PM
Waning Crescent, 9% visible
SPECI KFWN 310227Z AUTO 00000KT 10SM -RA SCT019 BKN027 OVC065 21/21 A3005 RMK AO2 P0001 T02110206

10-Day Weather Forecast

Almanac

Astronomy

Jul. 30, 2016 Rise Set
Actual Time
Civil Twilight
Nautical Twilight
Astronomical Twilight
Moon
Length of Visible Light
Length of Day
Tomorrow will be .
, % of the Moon is Illuminated

Today's Extremes

State Highs State Lows

Community

WunderPhotos

Upload Photos

1,928,714 photos uploaded!

WunderBlog® & News

Nearby

Air Quality

  Air Quality AQ Index Pollutant
Not available.

Snow Depth

Station Depth Elevation

Earthquake Activity

City Distance Mag. Time & Date
Minimum magnitude displayed is 2.5.

Coastal Water Temperatures

Place Temperature

Stations

Nearby Weather Stations

Station Location Temp. Windchill Dew Point Humidity Wind Precip. Elev Updated Type
                   

Watches & Warnings

There are currently no watches in effect.